createdAt,value
2023-04-03T00:03:30.725Z,1.05
2023-04-03T00:08:35.118Z,1.60
2023-04-03T00:13:39.495Z,2.00
2023-04-03T00:18:44.122Z,2.60
2023-04-03T00:23:47.481Z,2.60
2023-04-03T00:28:51.764Z,2.20
2023-04-03T00:33:54.941Z,2.17
2023-04-03T00:38:59.610Z,2.45
2023-04-03T00:44:02.760Z,2.10
2023-04-03T00:49:06.195Z,2.70
2023-04-03T00:54:09.950Z,2.72
2023-04-03T00:59:27.717Z,2.78
2023-04-03T01:04:41.164Z,2.65
2023-04-03T01:09:46.670Z,3.05
2023-04-03T01:14:55.631Z,2.05
2023-04-03T01:20:20.945Z,2.40
2023-04-03T01:25:24.478Z,2.30
2023-04-03T01:30:33.966Z,2.53
2023-04-03T01:35:39.498Z,2.72
2023-04-03T01:40:43.705Z,2.20
2023-04-03T01:45:48.163Z,2.45
2023-04-03T01:50:52.187Z,2.17
2023-04-03T01:55:56.368Z,1.92
2023-04-03T02:01:00.521Z,2.40
2023-04-03T02:06:04.805Z,1.98
2023-04-03T02:11:08.780Z,1.42
2023-04-03T02:16:13.986Z,1.88
2023-04-03T02:21:18.841Z,1.90
2023-04-03T02:26:22.539Z,1.80
2023-04-03T02:31:25.641Z,1.40
2023-04-03T02:36:31.812Z,1.35
2023-04-03T02:41:39.420Z,1.70
2023-04-03T02:46:49.223Z,1.50
2023-04-03T02:51:54.614Z,1.50
2023-04-03T02:56:59.506Z,1.70
2023-04-03T03:02:03.205Z,1.67
2023-04-03T03:07:07.136Z,1.33
2023-04-03T03:12:10.356Z,1.33
2023-04-03T03:17:14.358Z,1.42
2023-04-03T03:22:18.199Z,1.65
2023-04-03T03:27:24.043Z,1.67
2023-04-03T03:32:27.268Z,2.00
2023-04-03T03:37:31.058Z,2.40
2023-04-03T03:42:35.058Z,2.50
2023-04-03T03:47:39.655Z,2.17
2023-04-03T03:52:43.833Z,2.28
2023-04-03T03:57:48.531Z,1.83
2023-04-03T04:02:52.352Z,2.53
2023-04-03T04:07:59.219Z,2.63
2023-04-03T04:13:03.994Z,2.13
2023-04-03T04:18:08.646Z,2.75
2023-04-03T04:23:12.819Z,3.15
2023-04-03T04:28:17.984Z,2.65
2023-04-03T04:33:23.235Z,2.92
2023-04-03T04:38:27.337Z,2.53
2023-04-03T04:43:31.577Z,1.30
2023-04-03T04:48:36.504Z,1.50
2023-04-03T04:53:42.438Z,1.55
2023-04-03T04:58:49.675Z,1.55
2023-04-03T05:03:56.254Z,1.70
2023-04-03T05:09:00.891Z,1.33
2023-04-03T05:14:07.872Z,1.73
2023-04-03T05:19:13.959Z,1.63
2023-04-03T05:24:19.190Z,1.90
2023-04-03T05:29:23.220Z,5.47
2023-04-03T05:34:28.081Z,9.85
2023-04-03T05:39:33.569Z,6.78
2023-04-03T05:44:39.162Z,3.08
2023-04-03T05:49:42.612Z,3.17
2023-04-03T05:54:49.469Z,8.23
2023-04-03T05:59:58.958Z,3.47
2023-04-03T06:05:03.915Z,3.50
2023-04-03T06:10:08.339Z,2.88
2023-04-03T06:15:13.143Z,2.58
2023-04-03T06:20:17.605Z,2.55
2023-04-03T06:25:22.498Z,2.33
2023-04-03T06:30:26.916Z,2.67
2023-04-03T06:35:31.861Z,2.17
2023-04-03T06:40:36.253Z,1.95
2023-04-03T06:45:40.155Z,3.60
2023-04-03T06:50:44.605Z,4.30
2023-04-03T06:55:48.873Z,4.30
2023-04-03T07:00:52.966Z,3.08
2023-04-03T07:05:57.211Z,2.80
2023-04-03T07:11:00.981Z,2.60
2023-04-03T07:16:06.326Z,2.85
2023-04-03T07:21:09.621Z,3.20
2023-04-03T07:26:13.368Z,4.88
2023-04-03T07:31:19.814Z,3.90
2023-04-03T07:36:24.526Z,3.75
2023-04-03T07:41:28.314Z,5.20
2023-04-03T07:46:31.691Z,4.72
2023-04-03T07:51:35.377Z,3.00
2023-04-03T07:56:38.922Z,4.57
2023-04-03T08:01:43.095Z,3.17
2023-04-03T08:06:47.759Z,4.75
2023-04-03T08:11:54.492Z,5.72
2023-04-03T08:16:58.347Z,3.08
2023-04-03T08:22:04.402Z,3.15
2023-04-03T08:27:08.162Z,2.53
2023-04-03T08:32:12.286Z,2.17
2023-04-03T08:37:17.604Z,2.35
2023-04-03T08:42:43.820Z,1.13
2023-04-03T08:48:12.233Z,0.80
2023-04-03T08:53:29.825Z,1.08
2023-04-03T08:58:50.791Z,3.67
2023-04-03T09:03:54.051Z,1.40
2023-04-03T09:09:18.298Z,2.50
2023-04-03T09:14:37.605Z,3.28
2023-04-03T09:20:22.264Z,3.10
2023-04-03T09:25:38.732Z,3.28
2023-04-03T09:30:42.766Z,4.00
2023-04-03T09:35:48.921Z,4.03
2023-04-03T09:41:08.770Z,3.30
2023-04-03T09:46:30.599Z,3.90
2023-04-03T09:51:34.782Z,2.80
2023-04-03T09:56:39.636Z,3.65
2023-04-03T10:01:59.320Z,3.22
2023-04-03T10:07:03.356Z,2.60
2023-04-03T10:12:15.703Z,3.00
2023-04-03T10:17:25.181Z,2.90
2023-04-03T10:22:49.339Z,2.30
2023-04-03T10:28:16.439Z,2.72
2023-04-03T10:33:44.852Z,4.87
2023-04-03T10:39:07.182Z,3.00
2023-04-03T10:44:23.140Z,2.95
2023-04-03T10:50:05.642Z,2.90
2023-04-03T10:55:14.867Z,2.65
2023-04-03T11:00:24.214Z,2.63
2023-04-03T11:05:45.928Z,2.55
2023-04-03T11:10:52.661Z,3.63
2023-04-03T11:15:56.727Z,3.50
2023-04-03T11:21:06.823Z,3.55
2023-04-03T11:26:10.660Z,4.15
2023-04-03T11:31:43.712Z,5.15
2023-04-03T11:37:03.461Z,6.75
2023-04-03T11:42:17.380Z,6.30
2023-04-03T11:47:47.242Z,6.80
2023-04-03T11:52:50.400Z,7.15
2023-04-03T11:58:00.269Z,6.18
2023-04-03T12:03:03.512Z,6.55
2023-04-03T12:08:46.447Z,7.43
2023-04-03T12:13:53.422Z,7.22
2023-04-03T12:18:59.927Z,5.80
2023-04-03T12:24:10.416Z,8.13
2023-04-03T12:29:25.044Z,5.80
2023-04-03T12:35:03.862Z,4.97
2023-04-03T12:40:26.087Z,4.50
2023-04-03T12:45:31.278Z,4.93
2023-04-03T12:50:35.668Z,5.25
2023-04-03T12:55:39.880Z,4.75
2023-04-03T13:00:43.934Z,4.80
2023-04-03T13:05:47.981Z,4.90
2023-04-03T13:11:03.808Z,5.25
2023-04-03T13:16:11.931Z,5.68
2023-04-03T13:21:20.643Z,4.82
2023-04-03T13:26:27.581Z,5.38
2023-04-03T13:31:40.236Z,4.82
2023-04-03T13:36:56.241Z,5.57
2023-04-03T13:42:05.178Z,4.70
2023-04-03T13:47:25.831Z,4.10
2023-04-03T13:52:37.150Z,5.00
2023-04-03T13:57:55.878Z,4.28
2023-04-03T14:02:59.690Z,4.07
2023-04-03T14:08:03.431Z,5.20
2023-04-03T14:13:07.060Z,2.58
2023-04-03T14:18:18.993Z,3.30
2023-04-03T14:23:22.536Z,5.85
2023-04-03T14:28:26.819Z,2.42
2023-04-03T14:33:32.425Z,2.55
2023-04-03T14:38:36.546Z,2.95
2023-04-03T14:43:40.144Z,1.73
2023-04-03T14:48:44.428Z,1.67
2023-04-03T14:53:47.593Z,1.88
2023-04-03T14:58:54.945Z,1.30
2023-04-03T15:03:59.080Z,1.40
2023-04-03T15:09:04.431Z,5.70
2023-04-03T15:14:11.278Z,6.32
2023-04-03T15:19:15.695Z,1.55
2023-04-03T15:24:19.336Z,2.15
2023-04-03T15:29:23.313Z,2.55
2023-04-03T15:34:27.011Z,1.60
2023-04-03T15:39:30.636Z,1.92
2023-04-03T15:44:36.030Z,1.05
2023-04-03T15:49:40.317Z,1.05
2023-04-03T15:54:44.003Z,0.90
2023-04-03T15:59:47.286Z,1.10
2023-04-03T16:04:51.926Z,1.40
2023-04-03T16:09:56.266Z,1.50
2023-04-03T16:15:00.016Z,3.22
2023-04-03T16:20:04.946Z,1.77
2023-04-03T16:25:10.539Z,1.55
2023-04-03T16:30:14.220Z,0.95
2023-04-03T16:35:17.737Z,1.55
2023-04-03T16:40:22.036Z,1.27
2023-04-03T16:45:25.935Z,1.48
2023-04-03T16:50:30.297Z,2.88
2023-04-03T16:55:33.998Z,1.77
2023-04-03T17:00:38.420Z,2.40
2023-04-03T17:05:42.232Z,1.65
2023-04-03T17:10:46.436Z,2.38
2023-04-03T17:15:50.783Z,1.98
2023-04-03T17:20:55.040Z,2.55
2023-04-03T17:25:58.689Z,2.45
2023-04-03T17:31:04.029Z,2.20
2023-04-03T17:36:08.382Z,3.05
2023-04-03T17:41:12.844Z,3.10
2023-04-03T17:46:17.882Z,2.50
2023-04-03T17:51:24.140Z,2.63
2023-04-03T17:56:27.651Z,2.67
2023-04-03T18:01:35.022Z,3.03
2023-04-03T18:06:51.477Z,3.22
2023-04-03T18:11:56.610Z,3.20
2023-04-03T18:17:01.341Z,3.75
2023-04-03T18:22:09.033Z,3.63
2023-04-03T18:27:14.919Z,3.03
2023-04-03T18:32:20.023Z,2.58
2023-04-03T18:37:24.428Z,2.42
2023-04-03T18:42:28.821Z,2.00
2023-04-03T18:47:33.717Z,2.45
2023-04-03T18:52:37.185Z,5.35
2023-04-03T18:57:41.086Z,3.70
2023-04-03T19:02:45.896Z,2.28
2023-04-03T19:07:50.608Z,3.50
2023-04-03T19:12:53.793Z,3.20
2023-04-03T19:17:58.159Z,4.97
2023-04-03T19:23:02.727Z,4.20
2023-04-03T19:28:07.103Z,3.13
2023-04-03T19:33:10.653Z,4.05
2023-04-03T19:38:14.276Z,3.28
2023-04-03T19:43:18.203Z,4.00
2023-04-03T19:48:21.785Z,5.10
2023-04-03T19:53:29.257Z,5.07
2023-04-03T19:58:33.857Z,4.50
2023-04-03T20:03:37.601Z,4.88
2023-04-03T20:08:41.189Z,4.25
2023-04-03T20:13:44.727Z,3.33
2023-04-03T20:18:50.385Z,2.75
2023-04-03T20:23:55.788Z,1.85
2023-04-03T20:29:01.548Z,2.20
2023-04-03T20:34:05.403Z,0.90
2023-04-03T20:39:08.889Z,1.15
2023-04-03T20:44:12.171Z,0.98
2023-04-03T20:49:16.841Z,1.20
2023-04-03T20:54:20.889Z,1.00
2023-04-03T20:59:24.733Z,1.20
2023-04-03T21:04:53.393Z,1.02
2023-04-03T21:10:34.497Z,1.63
2023-04-03T21:15:46.778Z,1.83
2023-04-03T21:20:50.656Z,2.13
2023-04-03T21:25:54.593Z,2.60
2023-04-03T21:30:58.572Z,2.78
2023-04-03T21:36:03.484Z,2.42
2023-04-03T21:41:07.826Z,2.42
2023-04-03T21:46:11.380Z,2.30
2023-04-03T21:51:14.693Z,2.53
2023-04-03T21:56:18.362Z,2.45
2023-04-03T22:01:23.091Z,1.95
2023-04-03T22:06:27.023Z,2.13
2023-04-03T22:11:30.736Z,2.25
2023-04-03T22:16:46.997Z,2.00
2023-04-03T22:21:50.107Z,2.03
2023-04-03T22:26:54.538Z,2.00
2023-04-03T22:31:58.304Z,2.13
2023-04-03T22:37:02.331Z,1.63
2023-04-03T22:42:08.052Z,1.83
2023-04-03T22:47:11.588Z,1.75
2023-04-03T22:52:15.182Z,1.73
2023-04-03T22:57:19.004Z,1.73
2023-04-03T23:02:22.701Z,1.63
2023-04-03T23:07:26.875Z,1.95
2023-04-03T23:12:30.590Z,1.75
2023-04-03T23:17:37.869Z,1.83
2023-04-03T23:27:53.786Z,2.28
2023-04-03T23:32:57.334Z,2.78
2023-04-03T23:38:01.159Z,2.20
2023-04-03T23:43:05.149Z,2.13
2023-04-03T23:48:09.228Z,2.08
2023-04-03T23:53:14.977Z,2.42
2023-04-03T23:58:18.372Z,2.42
